sensor_id;sensor_type;location;lat;lon;timestamp;P1;durP1;ratioP1;P2;durP2;ratioP2
24663;SDS011;12791;50.992;13.788;2022-09-12T00:00:32;9.15;;;8.35;;
24663;SDS011;12791;50.992;13.788;2022-09-12T00:02:59;9.93;;;8.93;;
24663;SDS011;12791;50.992;13.788;2022-09-12T00:05:25;10.15;;;9.15;;
24663;SDS011;12791;50.992;13.788;2022-09-12T00:07:52;9.93;;;8.93;;
24663;SDS011;12791;50.992;13.788;2022-09-12T00:10:19;11.52;;;9.93;;
24663;SDS011;12791;50.992;13.788;2022-09-12T00:12:46;10.75;;;9.65;;
24663;SDS011;12791;50.992;13.788;2022-09-12T00:15:13;10.63;;;9.52;;
24663;SDS011;12791;50.992;13.788;2022-09-12T00:17:41;10.85;;;9.75;;
24663;SDS011;12791;50.992;13.788;2022-09-12T00:20:08;10.57;;;9.57;;
24663;SDS011;12791;50.992;13.788;2022-09-12T00:22:35;10.65;;;9.60;;
24663;SDS011;12791;50.992;13.788;2022-09-12T00:25:03;11.23;;;10.02;;
24663;SDS011;12791;50.992;13.788;2022-09-12T00:27:30;10.07;;;9.07;;
24663;SDS011;12791;50.992;13.788;2022-09-12T00:29:57;10.68;;;9.57;;
24663;SDS011;12791;50.992;13.788;2022-09-12T00:32:23;10.90;;;9.80;;
24663;SDS011;12791;50.992;13.788;2022-09-12T00:34:51;10.50;;;9.55;;
24663;SDS011;12791;50.992;13.788;2022-09-12T00:37:18;11.48;;;10.27;;
24663;SDS011;12791;50.992;13.788;2022-09-12T00:39:44;10.70;;;9.77;;
24663;SDS011;12791;50.992;13.788;2022-09-12T00:42:11;11.40;;;10.20;;
24663;SDS011;12791;50.992;13.788;2022-09-12T00:44:46;10.82;;;9.70;;
24663;SDS011;12791;50.992;13.788;2022-09-12T00:47:19;11.85;;;10.63;;
24663;SDS011;12791;50.992;13.788;2022-09-12T00:49:49;11.07;;;9.95;;
24663;SDS011;12791;50.992;13.788;2022-09-12T00:52:21;10.85;;;9.85;;
24663;SDS011;12791;50.992;13.788;2022-09-12T00:54:51;12.38;;;11.18;;
24663;SDS011;12791;50.992;13.788;2022-09-12T00:57:22;12.23;;;10.93;;
24663;SDS011;12791;50.992;13.788;2022-09-12T00:59:54;14.05;;;11.27;;
24663;SDS011;12791;50.992;13.788;2022-09-12T01:02:24;13.40;;;11.68;;
24663;SDS011;12791;50.992;13.788;2022-09-12T01:04:52;11.52;;;10.35;;
24663;SDS011;12791;50.992;13.788;2022-09-12T01:07:19;11.45;;;10.35;;
24663;SDS011;12791;50.992;13.788;2022-09-12T01:09:47;11.85;;;10.73;;
24663;SDS011;12791;50.992;13.788;2022-09-12T01:12:14;13.98;;;11.40;;
24663;SDS011;12791;50.992;13.788;2022-09-12T01:14:42;12.77;;;11.48;;
24663;SDS011;12791;50.992;13.788;2022-09-12T01:17:10;12.60;;;11.18;;
24663;SDS011;12791;50.992;13.788;2022-09-12T01:22:48;12.57;;;11.18;;
24663;SDS011;12791;50.992;13.788;2022-09-12T01:25:27;13.20;;;11.85;;
24663;SDS011;12791;50.992;13.788;2022-09-12T01:28:07;12.93;;;11.63;;
24663;SDS011;12791;50.992;13.788;2022-09-12T01:30:52;13.98;;;12.15;;
24663;SDS011;12791;50.992;13.788;2022-09-12T01:33:31;11.85;;;10.65;;
24663;SDS011;12791;50.992;13.788;2022-09-12T01:36:32;11.77;;;10.60;;
24663;SDS011;12791;50.992;13.788;2022-09-12T01:39:05;12.75;;;11.13;;
24663;SDS011;12791;50.992;13.788;2022-09-12T01:41:42;12.73;;;11.50;;
24663;SDS011;12791;50.992;13.788;2022-09-12T01:44:20;13.60;;;11.50;;
24663;SDS011;12791;50.992;13.788;2022-09-12T01:46:54;14.63;;;12.43;;
24663;SDS011;12791;50.992;13.788;2022-09-12T01:49:26;13.40;;;11.95;;
24663;SDS011;12791;50.992;13.788;2022-09-12T01:51:57;14.20;;;12.70;;
24663;SDS011;12791;50.992;13.788;2022-09-12T01:54:30;14.00;;;12.48;;
24663;SDS011;12791;50.992;13.788;2022-09-12T01:57:05;13.75;;;12.13;;
24663;SDS011;12791;50.992;13.788;2022-09-12T02:02:07;13.60;;;12.18;;
24663;SDS011;12791;50.992;13.788;2022-09-12T02:04:39;12.63;;;11.30;;
24663;SDS011;12791;50.992;13.788;2022-09-12T02:07:13;13.95;;;12.23;;
24663;SDS011;12791;50.992;13.788;2022-09-12T02:09:44;14.43;;;12.60;;
24663;SDS011;12791;50.992;13.788;2022-09-12T02:12:13;12.32;;;11.13;;
24663;SDS011;12791;50.992;13.788;2022-09-12T02:14:44;13.95;;;12.52;;
24663;SDS011;12791;50.992;13.788;2022-09-12T02:17:16;14.07;;;11.70;;
24663;SDS011;12791;50.992;13.788;2022-09-12T02:19:46;13.75;;;12.25;;
24663;SDS011;12791;50.992;13.788;2022-09-12T02:22:17;14.27;;;12.43;;
24663;SDS011;12791;50.992;13.788;2022-09-12T02:24:48;12.50;;;11.23;;
24663;SDS011;12791;50.992;13.788;2022-09-12T02:27:19;13.32;;;11.82;;
24663;SDS011;12791;50.992;13.788;2022-09-12T02:29:49;11.85;;;10.50;;
24663;SDS011;12791;50.992;13.788;2022-09-12T02:32:19;12.30;;;9.85;;
24663;SDS011;12791;50.992;13.788;2022-09-12T02:34:53;11.27;;;10.18;;
24663;SDS011;12791;50.992;13.788;2022-09-12T02:37:27;11.45;;;10.27;;
24663;SDS011;12791;50.992;13.788;2022-09-12T02:39:59;10.80;;;9.65;;
24663;SDS011;12791;50.992;13.788;2022-09-12T02:42:26;16.33;;;9.52;;
24663;SDS011;12791;50.992;13.788;2022-09-12T02:44:53;12.38;;;10.90;;
24663;SDS011;12791;50.992;13.788;2022-09-12T02:47:24;12.45;;;10.43;;
24663;SDS011;12791;50.992;13.788;2022-09-12T02:49:53;14.05;;;11.35;;
24663;SDS011;12791;50.992;13.788;2022-09-12T02:52:21;11.65;;;10.45;;
24663;SDS011;12791;50.992;13.788;2022-09-12T02:54:48;12.65;;;10.45;;
24663;SDS011;12791;50.992;13.788;2022-09-12T02:57:16;12.85;;;10.77;;
24663;SDS011;12791;50.992;13.788;2022-09-12T02:59:44;11.23;;;10.07;;
24663;SDS011;12791;50.992;13.788;2022-09-12T03:02:21;13.98;;;10.75;;
24663;SDS011;12791;50.992;13.788;2022-09-12T03:05:09;12.77;;;11.27;;
24663;SDS011;12791;50.992;13.788;2022-09-12T03:07:58;13.43;;;10.65;;
24663;SDS011;12791;50.992;13.788;2022-09-12T03:10:47;14.13;;;11.88;;
24663;SDS011;12791;50.992;13.788;2022-09-12T03:13:24;14.85;;;12.02;;
24663;SDS011;12791;50.992;13.788;2022-09-12T03:16:01;12.13;;;10.93;;
24663;SDS011;12791;50.992;13.788;2022-09-12T03:18:39;13.45;;;11.27;;
24663;SDS011;12791;50.992;13.788;2022-09-12T03:21:18;11.55;;;10.35;;
24663;SDS011;12791;50.992;13.788;2022-09-12T03:23:50;13.27;;;11.23;;
24663;SDS011;12791;50.992;13.788;2022-09-12T03:26:27;11.10;;;9.80;;
24663;SDS011;12791;50.992;13.788;2022-09-12T03:28:57;14.75;;;11.07;;
24663;SDS011;12791;50.992;13.788;2022-09-12T03:31:26;11.32;;;10.18;;
24663;SDS011;12791;50.992;13.788;2022-09-12T03:33:54;12.60;;;10.90;;
24663;SDS011;12791;50.992;13.788;2022-09-12T03:36:21;11.40;;;10.25;;
24663;SDS011;12791;50.992;13.788;2022-09-12T03:38:50;12.40;;;11.10;;
24663;SDS011;12791;50.992;13.788;2022-09-12T03:41:17;14.02;;;11.10;;
24663;SDS011;12791;50.992;13.788;2022-09-12T03:43:44;15.35;;;12.43;;
24663;SDS011;12791;50.992;13.788;2022-09-12T03:46:12;13.35;;;11.50;;
24663;SDS011;12791;50.992;13.788;2022-09-12T03:48:39;13.02;;;11.60;;
24663;SDS011;12791;50.992;13.788;2022-09-12T03:51:07;13.20;;;11.80;;
24663;SDS011;12791;50.992;13.788;2022-09-12T03:53:35;12.63;;;10.93;;
24663;SDS011;12791;50.992;13.788;2022-09-12T03:56:04;15.05;;;11.98;;
24663;SDS011;12791;50.992;13.788;2022-09-12T03:58:32;15.20;;;12.38;;
24663;SDS011;12791;50.992;13.788;2022-09-12T04:00:59;14.13;;;12.65;;
24663;SDS011;12791;50.992;13.788;2022-09-12T04:03:26;15.43;;;13.20;;
24663;SDS011;12791;50.992;13.788;2022-09-12T04:05:56;16.90;;;13.85;;
24663;SDS011;12791;50.992;13.788;2022-09-12T04:08:24;17.55;;;14.38;;
24663;SDS011;12791;50.992;13.788;2022-09-12T04:10:51;16.73;;;13.32;;
24663;SDS011;12791;50.992;13.788;2022-09-12T04:13:17;15.80;;;12.93;;
24663;SDS011;12791;50.992;13.788;2022-09-12T04:15:54;18.80;;;14.13;;
24663;SDS011;12791;50.992;13.788;2022-09-12T04:18:21;17.35;;;13.73;;
24663;SDS011;12791;50.992;13.788;2022-09-12T04:20:48;14.20;;;12.52;;
24663;SDS011;12791;50.992;13.788;2022-09-12T04:23:14;16.50;;;13.75;;
24663;SDS011;12791;50.992;13.788;2022-09-12T04:25:42;15.27;;;13.20;;
24663;SDS011;12791;50.992;13.788;2022-09-12T04:28:09;14.85;;;12.60;;
24663;SDS011;12791;50.992;13.788;2022-09-12T04:30:35;15.65;;;12.88;;
24663;SDS011;12791;50.992;13.788;2022-09-12T04:33:02;17.60;;;14.73;;
24663;SDS011;12791;50.992;13.788;2022-09-12T04:35:30;17.27;;;13.80;;
24663;SDS011;12791;50.992;13.788;2022-09-12T04:37:59;17.50;;;14.25;;
24663;SDS011;12791;50.992;13.788;2022-09-12T04:40:26;16.38;;;14.30;;
24663;SDS011;12791;50.992;13.788;2022-09-12T04:42:55;19.35;;;13.65;;
24663;SDS011;12791;50.992;13.788;2022-09-12T04:45:22;17.17;;;14.43;;
24663;SDS011;12791;50.992;13.788;2022-09-12T04:47:49;20.85;;;15.93;;
24663;SDS011;12791;50.992;13.788;2022-09-12T04:50:16;17.65;;;13.95;;
24663;SDS011;12791;50.992;13.788;2022-09-12T04:52:43;19.17;;;14.68;;
24663;SDS011;12791;50.992;13.788;2022-09-12T04:55:14;19.17;;;15.05;;
24663;SDS011;12791;50.992;13.788;2022-09-12T04:57:41;17.85;;;13.05;;
24663;SDS011;12791;50.992;13.788;2022-09-12T05:00:10;15.55;;;13.90;;
24663;SDS011;12791;50.992;13.788;2022-09-12T05:02:38;17.38;;;13.88;;
24663;SDS011;12791;50.992;13.788;2022-09-12T05:05:05;15.45;;;13.27;;
24663;SDS011;12791;50.992;13.788;2022-09-12T05:07:33;19.40;;;15.88;;
24663;SDS011;12791;50.992;13.788;2022-09-12T05:10:00;17.65;;;14.77;;
24663;SDS011;12791;50.992;13.788;2022-09-12T05:12:27;16.23;;;14.40;;
24663;SDS011;12791;50.992;13.788;2022-09-12T05:14:54;17.02;;;14.60;;
24663;SDS011;12791;50.992;13.788;2022-09-12T05:17:22;20.70;;;17.15;;
24663;SDS011;12791;50.992;13.788;2022-09-12T05:19:49;19.42;;;15.60;;
24663;SDS011;12791;50.992;13.788;2022-09-12T05:22:16;21.08;;;15.98;;
24663;SDS011;12791;50.992;13.788;2022-09-12T05:24:42;20.00;;;16.08;;
24663;SDS011;12791;50.992;13.788;2022-09-12T05:27:09;18.60;;;15.55;;
24663;SDS011;12791;50.992;13.788;2022-09-12T05:29:35;17.58;;;14.48;;
24663;SDS011;12791;50.992;13.788;2022-09-12T05:32:02;21.27;;;17.35;;
24663;SDS011;12791;50.992;13.788;2022-09-12T05:34:30;18.75;;;15.27;;
24663;SDS011;12791;50.992;13.788;2022-09-12T05:36:57;22.15;;;16.58;;
24663;SDS011;12791;50.992;13.788;2022-09-12T05:39:23;20.08;;;16.73;;
24663;SDS011;12791;50.992;13.788;2022-09-12T05:41:51;19.42;;;16.65;;
24663;SDS011;12791;50.992;13.788;2022-09-12T05:44:18;19.77;;;16.70;;
24663;SDS011;12791;50.992;13.788;2022-09-12T05:46:45;19.10;;;15.82;;
24663;SDS011;12791;50.992;13.788;2022-09-12T05:49:14;20.17;;;16.13;;
24663;SDS011;12791;50.992;13.788;2022-09-12T05:51:43;18.02;;;14.80;;
24663;SDS011;12791;50.992;13.788;2022-09-12T05:54:11;18.70;;;15.38;;
24663;SDS011;12791;50.992;13.788;2022-09-12T05:56:40;19.92;;;16.35;;
24663;SDS011;12791;50.992;13.788;2022-09-12T05:59:09;18.15;;;15.68;;
24663;SDS011;12791;50.992;13.788;2022-09-12T06:01:37;19.55;;;16.58;;
24663;SDS011;12791;50.992;13.788;2022-09-12T06:04:04;19.58;;;16.55;;
24663;SDS011;12791;50.992;13.788;2022-09-12T06:06:34;20.10;;;16.52;;
24663;SDS011;12791;50.992;13.788;2022-09-12T06:09:04;19.13;;;16.10;;
24663;SDS011;12791;50.992;13.788;2022-09-12T06:11:33;19.20;;;16.15;;
24663;SDS011;12791;50.992;13.788;2022-09-12T06:14:01;20.15;;;15.25;;
24663;SDS011;12791;50.992;13.788;2022-09-12T06:16:28;18.70;;;15.75;;
24663;SDS011;12791;50.992;13.788;2022-09-12T06:18:56;20.83;;;17.25;;
24663;SDS011;12791;50.992;13.788;2022-09-12T06:21:25;19.60;;;16.75;;
24663;SDS011;12791;50.992;13.788;2022-09-12T06:23:54;21.73;;;17.48;;
24663;SDS011;12791;50.992;13.788;2022-09-12T06:26:24;24.92;;;19.77;;
24663;SDS011;12791;50.992;13.788;2022-09-12T06:28:51;21.25;;;18.05;;
24663;SDS011;12791;50.992;13.788;2022-09-12T06:31:20;23.90;;;20.15;;
24663;SDS011;12791;50.992;13.788;2022-09-12T06:33:48;30.20;;;21.58;;
24663;SDS011;12791;50.992;13.788;2022-09-12T06:36:16;25.50;;;19.63;;
24663;SDS011;12791;50.992;13.788;2022-09-12T06:38:45;22.70;;;18.13;;
24663;SDS011;12791;50.992;13.788;2022-09-12T06:41:12;23.23;;;18.08;;
24663;SDS011;12791;50.992;13.788;2022-09-12T06:43:41;25.67;;;19.95;;
24663;SDS011;12791;50.992;13.788;2022-09-12T06:46:08;25.88;;;20.88;;
24663;SDS011;12791;50.992;13.788;2022-09-12T06:48:36;29.98;;;20.38;;
24663;SDS011;12791;50.992;13.788;2022-09-12T06:51:04;24.38;;;18.10;;
24663;SDS011;12791;50.992;13.788;2022-09-12T06:53:32;19.63;;;17.02;;
24663;SDS011;12791;50.992;13.788;2022-09-12T06:56:01;22.05;;;17.45;;
24663;SDS011;12791;50.992;13.788;2022-09-12T06:58:29;25.13;;;18.13;;
24663;SDS011;12791;50.992;13.788;2022-09-12T07:01:01;24.13;;;19.67;;
24663;SDS011;12791;50.992;13.788;2022-09-12T07:03:29;24.77;;;19.73;;
24663;SDS011;12791;50.992;13.788;2022-09-12T07:05:56;32.25;;;26.00;;
24663;SDS011;12791;50.992;13.788;2022-09-12T07:08:23;26.60;;;21.50;;
24663;SDS011;12791;50.992;13.788;2022-09-12T07:10:51;24.88;;;19.60;;
24663;SDS011;12791;50.992;13.788;2022-09-12T07:13:17;21.52;;;17.02;;
24663;SDS011;12791;50.992;13.788;2022-09-12T07:15:44;22.58;;;17.42;;
24663;SDS011;12791;50.992;13.788;2022-09-12T07:18:12;24.80;;;19.15;;
24663;SDS011;12791;50.992;13.788;2022-09-12T07:20:38;25.08;;;19.05;;
24663;SDS011;12791;50.992;13.788;2022-09-12T07:23:05;21.45;;;16.58;;
24663;SDS011;12791;50.992;13.788;2022-09-12T07:25:32;23.42;;;18.00;;
24663;SDS011;12791;50.992;13.788;2022-09-12T07:27:58;27.33;;;21.90;;
24663;SDS011;12791;50.992;13.788;2022-09-12T07:30:25;22.42;;;17.48;;
24663;SDS011;12791;50.992;13.788;2022-09-12T07:32:52;22.58;;;18.00;;
24663;SDS011;12791;50.992;13.788;2022-09-12T07:35:20;22.05;;;17.13;;
24663;SDS011;12791;50.992;13.788;2022-09-12T07:37:47;18.63;;;15.15;;
24663;SDS011;12791;50.992;13.788;2022-09-12T07:40:13;20.48;;;15.18;;
24663;SDS011;12791;50.992;13.788;2022-09-12T07:42:40;19.63;;;16.05;;
24663;SDS011;12791;50.992;13.788;2022-09-12T07:45:07;22.17;;;17.80;;
24663;SDS011;12791;50.992;13.788;2022-09-12T07:47:34;19.63;;;15.82;;
24663;SDS011;12791;50.992;13.788;2022-09-12T07:50:01;15.35;;;13.10;;
24663;SDS011;12791;50.992;13.788;2022-09-12T07:52:29;17.63;;;15.30;;
24663;SDS011;12791;50.992;13.788;2022-09-12T07:54:56;18.30;;;16.00;;
24663;SDS011;12791;50.992;13.788;2022-09-12T07:57:22;20.65;;;17.45;;
24663;SDS011;12791;50.992;13.788;2022-09-12T07:59:49;20.98;;;17.80;;
24663;SDS011;12791;50.992;13.788;2022-09-12T08:02:16;15.05;;;12.95;;
24663;SDS011;12791;50.992;13.788;2022-09-12T08:04:43;16.08;;;13.55;;
24663;SDS011;12791;50.992;13.788;2022-09-12T08:07:10;16.27;;;14.57;;
24663;SDS011;12791;50.992;13.788;2022-09-12T08:09:38;14.45;;;12.73;;
24663;SDS011;12791;50.992;13.788;2022-09-12T08:12:05;12.80;;;11.52;;
24663;SDS011;12791;50.992;13.788;2022-09-12T08:14:31;13.48;;;11.48;;
24663;SDS011;12791;50.992;13.788;2022-09-12T08:16:58;13.75;;;12.20;;
24663;SDS011;12791;50.992;13.788;2022-09-12T08:19:25;12.00;;;10.90;;
24663;SDS011;12791;50.992;13.788;2022-09-12T08:21:51;23.90;;;17.33;;
24663;SDS011;12791;50.992;13.788;2022-09-12T08:24:18;21.95;;;18.08;;
24663;SDS011;12791;50.992;13.788;2022-09-12T08:26:46;21.77;;;17.95;;
24663;SDS011;12791;50.992;13.788;2022-09-12T08:29:12;21.40;;;16.77;;
24663;SDS011;12791;50.992;13.788;2022-09-12T08:31:39;21.67;;;18.13;;
24663;SDS011;12791;50.992;13.788;2022-09-12T08:34:06;17.38;;;15.50;;
24663;SDS011;12791;50.992;13.788;2022-09-12T08:36:33;15.52;;;13.85;;
24663;SDS011;12791;50.992;13.788;2022-09-12T08:39:01;15.18;;;13.48;;
24663;SDS011;12791;50.992;13.788;2022-09-12T08:41:30;17.48;;;14.27;;
24663;SDS011;12791;50.992;13.788;2022-09-12T08:44:17;13.77;;;11.63;;
24663;SDS011;12791;50.992;13.788;2022-09-12T08:47:01;14.90;;;13.15;;
24663;SDS011;12791;50.992;13.788;2022-09-12T08:49:47;16.27;;;13.77;;
24663;SDS011;12791;50.992;13.788;2022-09-12T08:52:21;15.60;;;14.00;;
24663;SDS011;12791;50.992;13.788;2022-09-12T08:54:52;16.20;;;14.50;;
24663;SDS011;12791;50.992;13.788;2022-09-12T08:57:20;15.25;;;13.63;;
24663;SDS011;12791;50.992;13.788;2022-09-12T08:59:49;12.43;;;11.43;;
24663;SDS011;12791;50.992;13.788;2022-09-12T09:05:25;11.13;;;10.13;;
24663;SDS011;12791;50.992;13.788;2022-09-12T09:08:05;11.32;;;10.23;;
24663;SDS011;12791;50.992;13.788;2022-09-12T09:10:47;8.57;;;7.72;;
24663;SDS011;12791;50.992;13.788;2022-09-12T09:13:26;8.07;;;7.45;;
24663;SDS011;12791;50.992;13.788;2022-09-12T09:16:23;12.82;;;11.63;;
24663;SDS011;12791;50.992;13.788;2022-09-12T09:18:54;11.15;;;10.05;;
24663;SDS011;12791;50.992;13.788;2022-09-12T09:21:26;13.18;;;11.88;;
24663;SDS011;12791;50.992;13.788;2022-09-12T09:23:59;11.07;;;9.95;;
24663;SDS011;12791;50.992;13.788;2022-09-12T09:26:33;9.90;;;9.02;;
24663;SDS011;12791;50.992;13.788;2022-09-12T09:29:06;9.50;;;8.52;;
24663;SDS011;12791;50.992;13.788;2022-09-12T09:31:41;8.60;;;7.70;;
24663;SDS011;12791;50.992;13.788;2022-09-12T09:34:12;9.48;;;8.73;;
24663;SDS011;12791;50.992;13.788;2022-09-12T09:36:42;8.32;;;7.63;;
24663;SDS011;12791;50.992;13.788;2022-09-12T09:39:16;7.75;;;7.05;;
24663;SDS011;12791;50.992;13.788;2022-09-12T09:41:54;6.80;;;6.20;;
24663;SDS011;12791;50.992;13.788;2022-09-12T09:44:34;5.45;;;5.05;;
24663;SDS011;12791;50.992;13.788;2022-09-12T09:47:03;8.25;;;7.45;;
24663;SDS011;12791;50.992;13.788;2022-09-12T09:49:30;9.35;;;8.55;;
24663;SDS011;12791;50.992;13.788;2022-09-12T09:51:59;7.10;;;6.50;;
24663;SDS011;12791;50.992;13.788;2022-09-12T09:54:28;6.50;;;5.95;;
24663;SDS011;12791;50.992;13.788;2022-09-12T09:56:59;5.87;;;5.47;;
24663;SDS011;12791;50.992;13.788;2022-09-12T09:59:29;6.40;;;5.90;;
24663;SDS011;12791;50.992;13.788;2022-09-12T10:01:58;6.57;;;6.00;;
24663;SDS011;12791;50.992;13.788;2022-09-12T10:04:29;5.45;;;5.03;;
24663;SDS011;12791;50.992;13.788;2022-09-12T10:06:59;4.90;;;4.45;;
24663;SDS011;12791;50.992;13.788;2022-09-12T10:09:28;5.65;;;5.03;;
24663;SDS011;12791;50.992;13.788;2022-09-12T10:11:57;4.72;;;4.32;;
24663;SDS011;12791;50.992;13.788;2022-09-12T10:14:33;5.47;;;4.97;;
24663;SDS011;12791;50.992;13.788;2022-09-12T10:17:04;5.57;;;4.63;;
24663;SDS011;12791;50.992;13.788;2022-09-12T10:19:50;6.00;;;4.05;;
24663;SDS011;12791;50.992;13.788;2022-09-12T10:22:17;4.88;;;4.47;;
24663;SDS011;12791;50.992;13.788;2022-09-12T10:24:47;3.88;;;3.58;;
24663;SDS011;12791;50.992;13.788;2022-09-12T10:27:17;2.83;;;2.63;;
24663;SDS011;12791;50.992;13.788;2022-09-12T10:29:46;3.78;;;3.47;;
24663;SDS011;12791;50.992;13.788;2022-09-12T10:32:20;3.08;;;2.88;;
24663;SDS011;12791;50.992;13.788;2022-09-12T10:34:52;2.80;;;2.60;;
24663;SDS011;12791;50.992;13.788;2022-09-12T10:37:22;4.15;;;2.65;;
24663;SDS011;12791;50.992;13.788;2022-09-12T10:39:52;3.55;;;3.25;;
24663;SDS011;12791;50.992;13.788;2022-09-12T10:45:16;3.92;;;3.50;;
24663;SDS011;12791;50.992;13.788;2022-09-12T10:47:49;1.90;;;1.80;;
24663;SDS011;12791;50.992;13.788;2022-09-12T10:50:22;3.55;;;2.08;;
24663;SDS011;12791;50.992;13.788;2022-09-12T10:52:51;3.00;;;2.80;;
24663;SDS011;12791;50.992;13.788;2022-09-12T10:55:19;3.25;;;2.95;;
24663;SDS011;12791;50.992;13.788;2022-09-12T11:00:53;2.25;;;2.10;;
24663;SDS011;12791;50.992;13.788;2022-09-12T11:03:31;1.42;;;1.40;;
24663;SDS011;12791;50.992;13.788;2022-09-12T11:06:12;1.20;;;1.10;;
24663;SDS011;12791;50.992;13.788;2022-09-12T11:08:56;1.55;;;1.45;;
24663;SDS011;12791;50.992;13.788;2022-09-12T11:11:35;2.45;;;1.83;;
24663;SDS011;12791;50.992;13.788;2022-09-12T11:14:12;3.20;;;1.80;;
24663;SDS011;12791;50.992;13.788;2022-09-12T11:17:01;1.30;;;1.20;;
24663;SDS011;12791;50.992;13.788;2022-09-12T11:19:41;1.17;;;0.88;;
24663;SDS011;12791;50.992;13.788;2022-09-12T11:22:23;0.70;;;0.70;;
24663;SDS011;12791;50.992;13.788;2022-09-12T11:28:00;0.98;;;0.70;;
24663;SDS011;12791;50.992;13.788;2022-09-12T11:30:47;1.88;;;1.20;;
24663;SDS011;12791;50.992;13.788;2022-09-12T11:33:34;1.30;;;1.20;;
24663;SDS011;12791;50.992;13.788;2022-09-12T11:36:09;0.90;;;0.90;;
24663;SDS011;12791;50.992;13.788;2022-09-12T11:38:53;1.98;;;1.73;;
24663;SDS011;12791;50.992;13.788;2022-09-12T11:41:32;2.47;;;1.67;;
24663;SDS011;12791;50.992;13.788;2022-09-12T11:44:02;3.15;;;1.60;;
24663;SDS011;12791;50.992;13.788;2022-09-12T11:46:38;2.35;;;2.15;;
24663;SDS011;12791;50.992;13.788;2022-09-12T11:49:12;2.17;;;1.98;;
24663;SDS011;12791;50.992;13.788;2022-09-12T11:51:47;2.53;;;1.80;;
24663;SDS011;12791;50.992;13.788;2022-09-12T11:54:20;2.85;;;2.15;;
24663;SDS011;12791;50.992;13.788;2022-09-12T11:56:52;1.40;;;1.40;;
24663;SDS011;12791;50.992;13.788;2022-09-12T11:59:29;1.65;;;1.55;;
24663;SDS011;12791;50.992;13.788;2022-09-12T12:02:00;1.27;;;1.17;;
24663;SDS011;12791;50.992;13.788;2022-09-12T12:04:31;1.85;;;1.40;;
24663;SDS011;12791;50.992;13.788;2022-09-12T12:07:04;1.30;;;1.20;;
24663;SDS011;12791;50.992;13.788;2022-09-12T12:09:33;1.15;;;1.15;;
24663;SDS011;12791;50.992;13.788;2022-09-12T12:12:02;1.52;;;1.20;;
24663;SDS011;12791;50.992;13.788;2022-09-12T12:14:35;1.40;;;1.02;;
24663;SDS011;12791;50.992;13.788;2022-09-12T12:17:11;1.13;;;0.90;;
24663;SDS011;12791;50.992;13.788;2022-09-12T12:19:39;0.70;;;0.70;;
24663;SDS011;12791;50.992;13.788;2022-09-12T12:22:07;1.23;;;1.00;;
24663;SDS011;12791;50.992;13.788;2022-09-12T12:24:54;0.75;;;0.70;;
24663;SDS011;12791;50.992;13.788;2022-09-12T12:27:49;4.88;;;0.93;;
24663;SDS011;12791;50.992;13.788;2022-09-12T12:36:39;0.95;;;0.60;;
24663;SDS011;12791;50.992;13.788;2022-09-12T12:48:32;0.97;;;0.97;;
24663;SDS011;12791;50.992;13.788;2022-09-12T12:51:25;3.17;;;1.20;;
24663;SDS011;12791;50.992;13.788;2022-09-12T12:54:00;1.58;;;1.20;;
24663;SDS011;12791;50.992;13.788;2022-09-12T12:56:33;1.50;;;1.40;;
24663;SDS011;12791;50.992;13.788;2022-09-12T12:59:05;0.80;;;0.80;;
24663;SDS011;12791;50.992;13.788;2022-09-12T13:01:43;1.63;;;1.05;;
24663;SDS011;12791;50.992;13.788;2022-09-12T13:04:13;1.73;;;1.17;;
24663;SDS011;12791;50.992;13.788;2022-09-12T13:06:43;1.10;;;1.10;;
24663;SDS011;12791;50.992;13.788;2022-09-12T13:09:18;0.88;;;0.80;;
24663;SDS011;12791;50.992;13.788;2022-09-12T13:11:52;1.92;;;1.02;;
24663;SDS011;12791;50.992;13.788;2022-09-12T13:17:17;1.67;;;1.00;;
24663;SDS011;12791;50.992;13.788;2022-09-12T13:19:53;0.90;;;0.90;;
24663;SDS011;12791;50.992;13.788;2022-09-12T13:22:36;0.80;;;0.70;;
24663;SDS011;12791;50.992;13.788;2022-09-12T13:25:15;2.00;;;0.85;;
24663;SDS011;12791;50.992;13.788;2022-09-12T13:27:55;0.77;;;0.77;;
24663;SDS011;12791;50.992;13.788;2022-09-12T13:30:23;0.80;;;0.80;;
24663;SDS011;12791;50.992;13.788;2022-09-12T13:32:50;0.73;;;0.70;;
24663;SDS011;12791;50.992;13.788;2022-09-12T13:35:21;0.93;;;0.80;;
24663;SDS011;12791;50.992;13.788;2022-09-12T13:37:58;0.70;;;0.70;;
24663;SDS011;12791;50.992;13.788;2022-09-12T13:40:32;0.55;;;0.55;;
24663;SDS011;12791;50.992;13.788;2022-09-12T13:43:07;0.88;;;0.70;;
24663;SDS011;12791;50.992;13.788;2022-09-12T13:45:37;0.95;;;0.70;;
24663;SDS011;12791;50.992;13.788;2022-09-12T13:48:04;0.70;;;0.70;;
24663;SDS011;12791;50.992;13.788;2022-09-12T13:50:39;1.08;;;0.98;;
24663;SDS011;12791;50.992;13.788;2022-09-12T13:53:11;0.75;;;0.70;;
24663;SDS011;12791;50.992;13.788;2022-09-12T13:55:41;0.65;;;0.65;;
24663;SDS011;12791;50.992;13.788;2022-09-12T13:58:15;0.60;;;0.60;;
24663;SDS011;12791;50.992;13.788;2022-09-12T14:03:24;0.70;;;0.70;;
24663;SDS011;12791;50.992;13.788;2022-09-12T14:06:11;0.60;;;0.60;;
24663;SDS011;12791;50.992;13.788;2022-09-12T14:08:38;0.63;;;0.63;;
24663;SDS011;12791;50.992;13.788;2022-09-12T14:11:06;2.25;;;0.70;;
24663;SDS011;12791;50.992;13.788;2022-09-12T14:13:35;1.38;;;1.38;;
24663;SDS011;12791;50.992;13.788;2022-09-12T14:16:03;1.40;;;0.95;;
24663;SDS011;12791;50.992;13.788;2022-09-12T14:18:33;0.80;;;0.80;;
24663;SDS011;12791;50.992;13.788;2022-09-12T14:21:05;0.80;;;0.80;;
24663;SDS011;12791;50.992;13.788;2022-09-12T14:23:37;1.13;;;1.00;;
24663;SDS011;12791;50.992;13.788;2022-09-12T14:26:08;1.00;;;1.00;;
24663;SDS011;12791;50.992;13.788;2022-09-12T14:28:38;0.77;;;0.77;;
24663;SDS011;12791;50.992;13.788;2022-09-12T14:31:08;0.98;;;0.85;;
24663;SDS011;12791;50.992;13.788;2022-09-12T14:33:48;0.90;;;0.90;;
24663;SDS011;12791;50.992;13.788;2022-09-12T14:36:18;0.70;;;0.70;;
24663;SDS011;12791;50.992;13.788;2022-09-12T14:38:49;0.80;;;0.65;;
24663;SDS011;12791;50.992;13.788;2022-09-12T14:41:22;1.15;;;0.70;;
24663;SDS011;12791;50.992;13.788;2022-09-12T14:43:53;0.60;;;0.60;;
24663;SDS011;12791;50.992;13.788;2022-09-12T14:46:22;2.47;;;0.60;;
24663;SDS011;12791;50.992;13.788;2022-09-12T14:48:52;0.75;;;0.75;;
24663;SDS011;12791;50.992;13.788;2022-09-12T14:51:25;1.48;;;0.70;;
24663;SDS011;12791;50.992;13.788;2022-09-12T14:53:54;0.73;;;0.73;;
24663;SDS011;12791;50.992;13.788;2022-09-12T14:56:35;1.55;;;0.60;;
24663;SDS011;12791;50.992;13.788;2022-09-12T14:59:19;0.70;;;0.70;;
24663;SDS011;12791;50.992;13.788;2022-09-12T15:04:50;0.60;;;0.60;;
24663;SDS011;12791;50.992;13.788;2022-09-12T15:07:20;1.00;;;0.80;;
24663;SDS011;12791;50.992;13.788;2022-09-12T15:10:01;1.02;;;0.75;;
24663;SDS011;12791;50.992;13.788;2022-09-12T15:12:30;2.05;;;0.90;;
24663;SDS011;12791;50.992;13.788;2022-09-12T15:14:57;1.02;;;0.70;;
24663;SDS011;12791;50.992;13.788;2022-09-12T15:17:29;0.60;;;0.60;;
24663;SDS011;12791;50.992;13.788;2022-09-12T15:19:55;1.75;;;0.70;;
24663;SDS011;12791;50.992;13.788;2022-09-12T15:22:22;0.65;;;0.65;;